Marche-en-Famenne, Belgium
Current Conditions -  °F | °C
As of 4:20 AM on Wednesday 26 Nov 2014 (Local Time) from EBLG Reporting Station
Clear Clear  
Wind Chill: 39°   Ceiling: Unl
Heat Index: 43°   Visibility: 6mi
Dew Point: 39°   Wind: 6mph
Humidity: 87%   Direction: 120°ESE
Pressure: 29.97"   Gusts: NA
Location:  50.23°N, 5.34°E
Report Text: EBLG 260320Z 12005KT 090V190 CAVOK 06/04 Q1015 NOSIG
Loading
Personal Weather Stations






























Interactive Weather Map New forecast layout! Learn more

10-Day Weather Forecast

Advertisements
Track Severe Weather on mobile